sensor_id;sensor_type;location;lat;lon;timestamp;pressure;altitude;pressure_sealevel;temperature;humidity
6833;BME280;3454;42.654;23.378;2023-03-21T00:00:25;64388.59;;;13.63;54.28
6833;BME280;3454;42.654;23.378;2023-03-21T00:02:51;64382.56;;;13.57;54.94
6833;BME280;3454;42.654;23.378;2023-03-21T00:05:16;64389.34;;;13.66;55.12
6833;BME280;3454;42.654;23.378;2023-03-21T00:07:45;64380.22;;;13.60;54.78
6833;BME280;3454;42.654;23.378;2023-03-21T00:10:10;64383.88;;;13.61;56.30
6833;BME280;3454;42.654;23.378;2023-03-21T00:12:35;64375.09;;;13.53;55.58
6833;BME280;3454;42.654;23.378;2023-03-21T00:15:06;64375.09;;;13.53;56.02
6833;BME280;3454;42.654;23.378;2023-03-21T00:17:32;64370.13;;;13.48;55.42
6833;BME280;3454;42.654;23.378;2023-03-21T00:19:59;64383.09;;;13.58;54.50
6833;BME280;3454;42.654;23.378;2023-03-21T00:22:25;64372.88;;;13.51;55.49
6833;BME280;3454;42.654;23.378;2023-03-21T00:24:52;64390.78;;;13.65;54.31
6833;BME280;3454;42.654;23.378;2023-03-21T00:27:17;64349.81;;;13.29;55.05
6833;BME280;3454;42.654;23.378;2023-03-21T00:29:47;64342.50;;;13.20;57.09
6833;BME280;3454;42.654;23.378;2023-03-21T00:32:14;64302.41;;;12.84;57.07
6833;BME280;3454;42.654;23.378;2023-03-21T00:34:40;64319.75;;;12.97;57.23
6833;BME280;3454;42.654;23.378;2023-03-21T00:37:07;64281.03;;;12.64;57.12
6833;BME280;3454;42.654;23.378;2023-03-21T00:39:33;64272.25;;;12.56;57.99
6833;BME280;3454;42.654;23.378;2023-03-21T00:41:59;64263.47;;;12.48;58.13
6833;BME280;3454;42.654;23.378;2023-03-21T00:44:25;64275.75;;;12.61;58.34
6833;BME280;3454;42.654;23.378;2023-03-21T00:46:51;64246.69;;;12.35;58.33
6833;BME280;3454;42.654;23.378;2023-03-21T00:49:16;64259.09;;;12.44;58.79
6833;BME280;3454;42.654;23.378;2023-03-21T00:51:44;64260.19;;;12.45;58.97
6833;BME280;3454;42.654;23.378;2023-03-21T00:54:10;64251.28;;;12.41;59.25
6833;BME280;3454;42.654;23.378;2023-03-21T00:56:36;64244.28;;;12.30;59.50
6833;BME280;3454;42.654;23.378;2023-03-21T00:59:02;64232.22;;;12.19;59.80
6833;BME280;3454;42.654;23.378;2023-03-21T01:01:27;64233.88;;;12.21;60.08
6833;BME280;3454;42.654;23.378;2023-03-21T01:03:57;64223.44;;;12.11;60.55
6833;BME280;3454;42.654;23.378;2023-03-21T01:06:31;64212.72;;;12.04;61.05
6833;BME280;3454;42.654;23.378;2023-03-21T01:08:57;64242.63;;;12.29;62.12
6833;BME280;3454;42.654;23.378;2023-03-21T01:11:25;64247.25;;;12.35;60.84
6833;BME280;3454;42.654;23.378;2023-03-21T01:13:51;64261.63;;;12.44;60.21
6833;BME280;3454;42.654;23.378;2023-03-21T01:16:17;64255.78;;;12.41;60.32
6833;BME280;3454;42.654;23.378;2023-03-21T01:18:42;64264.22;;;12.51;62.16
6833;BME280;3454;42.654;23.378;2023-03-21T01:21:11;64268.94;;;12.53;61.39
6833;BME280;3454;42.654;23.378;2023-03-21T01:23:38;64271.38;;;12.57;60.66
6833;BME280;3454;42.654;23.378;2023-03-21T01:26:06;64284.53;;;12.70;58.82
6833;BME280;3454;42.654;23.378;2023-03-21T01:28:35;64262.38;;;12.47;59.19
6833;BME280;3454;42.654;23.378;2023-03-21T01:31:02;64268.94;;;12.53;58.73
6833;BME280;3454;42.654;23.378;2023-03-21T01:33:31;64250.53;;;12.38;59.13
6833;BME280;3454;42.654;23.378;2023-03-21T01:35:58;64259.09;;;12.44;58.75
6833;BME280;3454;42.654;23.378;2023-03-21T01:38:24;64240.66;;;12.29;60.27
6833;BME280;3454;42.654;23.378;2023-03-21T01:40:50;64220.72;;;12.09;61.01
6833;BME280;3454;42.654;23.378;2023-03-21T01:43:25;64182.03;;;11.75;61.04
6833;BME280;3454;42.654;23.378;2023-03-21T01:48:48;64182.03;;;11.75;61.60
6833;BME280;3454;42.654;23.378;2023-03-21T01:51:14;64177.97;;;11.69;61.67
6833;BME280;3454;42.654;23.378;2023-03-21T01:53:40;64172.69;;;11.67;61.71
6833;BME280;3454;42.654;23.378;2023-03-21T01:56:22;64173.00;;;11.65;61.96
6833;BME280;3454;42.654;23.378;2023-03-21T01:58:50;64167.19;;;11.62;62.07
6833;BME280;3454;42.654;23.378;2023-03-21T02:01:17;64159.88;;;11.53;61.71
6833;BME280;3454;42.654;23.378;2023-03-21T02:03:45;64168.06;;;11.60;61.98
6833;BME280;3454;42.654;23.378;2023-03-21T02:09:03;64170.50;;;11.65;62.46
6833;BME280;3454;42.654;23.378;2023-03-21T02:11:29;64172.16;;;11.66;61.79
6833;BME280;3454;42.654;23.378;2023-03-21T02:13:56;64179.84;;;11.73;61.50
6833;BME280;3454;42.654;23.378;2023-03-21T02:27:11;64173.78;;;11.68;60.87
6833;BME280;3454;42.654;23.378;2023-03-21T02:32:58;64195.16;;;11.88;61.12
6833;BME280;3454;42.654;23.378;2023-03-21T02:38:22;64183.66;;;11.77;60.92
6833;BME280;3454;42.654;23.378;2023-03-21T02:40:52;64190.00;;;11.80;62.79
6833;BME280;3454;42.654;23.378;2023-03-21T02:46:25;64214.13;;;12.03;60.97
6833;BME280;3454;42.654;23.378;2023-03-21T02:49:07;64223.44;;;12.11;60.22
6833;BME280;3454;42.654;23.378;2023-03-21T02:51:36;64215.78;;;12.04;61.04
6833;BME280;3454;42.654;23.378;2023-03-21T02:54:08;64227.28;;;12.15;61.74
6833;BME280;3454;42.654;23.378;2023-03-21T02:56:35;64229.47;;;12.17;60.73
6833;BME280;3454;42.654;23.378;2023-03-21T02:59:03;64234.97;;;12.22;61.08
6833;BME280;3454;42.654;23.378;2023-03-21T03:01:29;64253.03;;;12.38;59.77
6833;BME280;3454;42.654;23.378;2023-03-21T03:03:56;64235.72;;;12.25;60.70
6833;BME280;3454;42.654;23.378;2023-03-21T03:06:25;64219.28;;;12.10;61.68
6833;BME280;3454;42.654;23.378;2023-03-21T03:09:17;64210.53;;;12.02;61.48
6833;BME280;3454;42.654;23.378;2023-03-21T03:11:51;64206.47;;;11.96;61.57
6833;BME280;3454;42.654;23.378;2023-03-21T03:22:41;64192.75;;;11.83;61.73
6833;BME280;3454;42.654;23.378;2023-03-21T03:25:13;64196.03;;;11.86;61.72
6833;BME280;3454;42.654;23.378;2023-03-21T03:27:45;64195.50;;;11.86;61.30
6833;BME280;3454;42.654;23.378;2023-03-21T03:30:13;64192.97;;;11.86;62.16
6833;BME280;3454;42.654;23.378;2023-03-21T03:32:52;64205.03;;;11.97;62.05
6833;BME280;3454;42.654;23.378;2023-03-21T03:35:19;64193.50;;;11.86;61.78
6833;BME280;3454;42.654;23.378;2023-03-21T03:37:53;64190.78;;;11.84;61.71
6833;BME280;3454;42.654;23.378;2023-03-21T03:40:43;64201.53;;;11.91;60.93
6833;BME280;3454;42.654;23.378;2023-03-21T03:43:19;64185.31;;;11.78;61.17
6833;BME280;3454;42.654;23.378;2023-03-21T03:45:49;64185.31;;;11.78;61.59
6833;BME280;3454;42.654;23.378;2023-03-21T03:50:51;64174.91;;;11.69;61.56
6833;BME280;3454;42.654;23.378;2023-03-21T03:53:24;64154.94;;;11.48;62.35
6833;BME280;3454;42.654;23.378;2023-03-21T03:55:53;64159.31;;;11.52;61.61
6833;BME280;3454;42.654;23.378;2023-03-21T03:58:23;64134.09;;;11.29;62.82
6833;BME280;3454;42.654;23.378;2023-03-21T04:00:50;64150.00;;;11.44;63.08
6833;BME280;3454;42.654;23.378;2023-03-21T04:03:16;64148.34;;;11.42;62.14
6833;BME280;3454;42.654;23.378;2023-03-21T04:05:43;64111.66;;;11.09;62.70
6833;BME280;3454;42.654;23.378;2023-03-21T04:08:11;64132.47;;;11.28;62.69
6833;BME280;3454;42.654;23.378;2023-03-21T04:10:38;64110.56;;;11.08;62.37
6833;BME280;3454;42.654;23.378;2023-03-21T04:13:03;64110.00;;;11.07;62.11
6833;BME280;3454;42.654;23.378;2023-03-21T04:15:29;64120.44;;;11.17;62.36
6833;BME280;3454;42.654;23.378;2023-03-21T04:17:55;64123.72;;;11.20;61.92
6833;BME280;3454;42.654;23.378;2023-03-21T04:20:20;64116.81;;;11.16;61.46
6833;BME280;3454;42.654;23.378;2023-03-21T04:22:46;64118.25;;;11.15;63.05
6833;BME280;3454;42.654;23.378;2023-03-21T04:25:13;64133.03;;;11.28;63.86
6833;BME280;3454;42.654;23.378;2023-03-21T04:27:38;64146.16;;;11.40;63.20
6833;BME280;3454;42.654;23.378;2023-03-21T04:30:04;64158.22;;;11.51;62.12
6833;BME280;3454;42.654;23.378;2023-03-21T04:32:32;64160.06;;;11.55;62.63
6833;BME280;3454;42.654;23.378;2023-03-21T04:34:59;64162.59;;;11.55;62.79
6833;BME280;3454;42.654;23.378;2023-03-21T04:37:25;64155.16;;;11.51;62.51
6833;BME280;3454;42.654;23.378;2023-03-21T04:39:52;64159.31;;;11.52;62.00
6833;BME280;3454;42.654;23.378;2023-03-21T04:42:18;64145.28;;;11.42;62.42
6833;BME280;3454;42.654;23.378;2023-03-21T04:44:45;64157.88;;;11.53;62.20
6833;BME280;3454;42.654;23.378;2023-03-21T04:47:10;64143.66;;;11.40;63.11
6833;BME280;3454;42.654;23.378;2023-03-21T04:49:37;64151.31;;;11.47;61.63
6833;BME280;3454;42.654;23.378;2023-03-21T04:52:03;64148.34;;;11.42;62.52
6833;BME280;3454;42.654;23.378;2023-03-21T04:54:29;64144.53;;;11.39;62.24
6833;BME280;3454;42.654;23.378;2023-03-21T04:56:54;64132.13;;;11.30;62.39
6833;BME280;3454;42.654;23.378;2023-03-21T04:59:20;64140.34;;;11.37;62.30
6833;BME280;3454;42.654;23.378;2023-03-21T05:01:45;64151.44;;;11.43;62.08
6833;BME280;3454;42.654;23.378;2023-03-21T05:04:13;64158.97;;;11.54;62.21
6833;BME280;3454;42.654;23.378;2023-03-21T05:06:39;64169.72;;;11.62;61.24
6833;BME280;3454;42.654;23.378;2023-03-21T05:09:07;64160.41;;;11.53;61.71
6833;BME280;3454;42.654;23.378;2023-03-21T05:11:34;64154.94;;;11.48;62.07
6833;BME280;3454;42.654;23.378;2023-03-21T05:14:02;64151.31;;;11.47;61.97
6833;BME280;3454;42.654;23.378;2023-03-21T05:16:28;64139.59;;;11.34;63.18
6833;BME280;3454;42.654;23.378;2023-03-21T05:18:56;64142.34;;;11.37;63.09
6833;BME280;3454;42.654;23.378;2023-03-21T05:21:23;64153.81;;;11.47;63.55
6833;BME280;3454;42.654;23.378;2023-03-21T05:23:49;64180.16;;;11.71;62.52
6833;BME280;3454;42.654;23.378;2023-03-21T05:26:20;64187.81;;;11.78;62.01
6833;BME280;3454;42.654;23.378;2023-03-21T05:28:46;64182.34;;;11.73;61.57
6833;BME280;3454;42.654;23.378;2023-03-21T05:31:16;64180.69;;;11.72;61.93
6833;BME280;3454;42.654;23.378;2023-03-21T05:33:45;64172.69;;;11.67;62.79
6833;BME280;3454;42.654;23.378;2023-03-21T05:36:17;64184.53;;;11.75;61.96
6833;BME280;3454;42.654;23.378;2023-03-21T05:38:43;64185.06;;;11.76;61.63
6833;BME280;3454;42.654;23.378;2023-03-21T05:41:12;64196.03;;;11.86;61.28
6833;BME280;3454;42.654;23.378;2023-03-21T05:43:38;64200.97;;;11.91;60.51
6833;BME280;3454;42.654;23.378;2023-03-21T05:46:03;64186.41;;;11.79;60.96
6833;BME280;3454;42.654;23.378;2023-03-21T05:48:29;64188.38;;;11.79;61.48
6833;BME280;3454;42.654;23.378;2023-03-21T05:50:54;64211.59;;;12.03;61.47
6833;BME280;3454;42.654;23.378;2023-03-21T05:53:21;64213.03;;;12.02;61.07
6833;BME280;3454;42.654;23.378;2023-03-21T05:55:46;64192.00;;;11.80;60.78
6833;BME280;3454;42.654;23.378;2023-03-21T05:58:12;64173.56;;;11.65;61.37
6833;BME280;3454;42.654;23.378;2023-03-21T06:00:37;64171.59;;;11.66;61.59
6833;BME280;3454;42.654;23.378;2023-03-21T06:03:03;64168.63;;;11.61;61.50
6833;BME280;3454;42.654;23.378;2023-03-21T06:05:28;64147.13;;;11.46;61.19
6833;BME280;3454;42.654;23.378;2023-03-21T06:07:53;64156.00;;;11.49;61.80
6833;BME280;3454;42.654;23.378;2023-03-21T06:10:19;64188.94;;;11.79;61.71
6833;BME280;3454;42.654;23.378;2023-03-21T06:12:45;64211.38;;;12.00;60.93
6833;BME280;3454;42.654;23.378;2023-03-21T06:15:11;64227.28;;;12.15;60.39
6833;BME280;3454;42.654;23.378;2023-03-21T06:17:36;64227.28;;;12.15;59.54
6833;BME280;3454;42.654;23.378;2023-03-21T06:20:02;64230.03;;;12.17;60.03
6833;BME280;3454;42.654;23.378;2023-03-21T06:22:32;64236.28;;;12.25;59.15
6833;BME280;3454;42.654;23.378;2023-03-21T06:24:58;64253.81;;;12.41;58.54
6833;BME280;3454;42.654;23.378;2023-03-21T06:27:24;64251.06;;;12.39;59.31
6833;BME280;3454;42.654;23.378;2023-03-21T06:29:49;64272.25;;;12.56;59.71
6833;BME280;3454;42.654;23.378;2023-03-21T06:32:16;64265.13;;;12.49;59.73
6833;BME280;3454;42.654;23.378;2023-03-21T06:34:42;64286.16;;;12.71;60.96
6833;BME280;3454;42.654;23.378;2023-03-21T06:37:07;64292.19;;;12.77;60.61
6833;BME280;3454;42.654;23.378;2023-03-21T06:39:33;64315.56;;;12.96;60.23
6833;BME280;3454;42.654;23.378;2023-03-21T06:41:59;64330.63;;;13.12;59.37
6833;BME280;3454;42.654;23.378;2023-03-21T06:44:25;64345.00;;;13.20;60.71
6833;BME280;3454;42.654;23.378;2023-03-21T06:46:51;64365.53;;;13.41;60.57
6833;BME280;3454;42.654;23.378;2023-03-21T06:49:17;64378.91;;;13.56;59.94
6833;BME280;3454;42.654;23.378;2023-03-21T06:51:44;64389.16;;;13.63;59.22
6833;BME280;3454;42.654;23.378;2023-03-21T06:54:10;64400.31;;;13.76;72.86
6833;BME280;3454;42.654;23.378;2023-03-21T06:56:36;64448.44;;;14.17;76.42
6833;BME280;3454;42.654;23.378;2023-03-21T06:59:02;64488.03;;;14.54;67.67
6833;BME280;3454;42.654;23.378;2023-03-21T07:01:28;64537.47;;;14.99;67.08
6833;BME280;3454;42.654;23.378;2023-03-21T07:03:54;64573.78;;;15.32;63.14
6833;BME280;3454;42.654;23.378;2023-03-21T07:06:21;64660.91;;;16.14;60.64
6833;BME280;3454;42.654;23.378;2023-03-21T07:08:47;64685.13;;;16.36;60.10
6833;BME280;3454;42.654;23.378;2023-03-21T07:11:12;64719.28;;;16.67;60.88
6833;BME280;3454;42.654;23.378;2023-03-21T07:13:38;64780.63;;;17.26;54.96
6833;BME280;3454;42.654;23.378;2023-03-21T07:16:04;64806.66;;;17.45;51.31
6833;BME280;3454;42.654;23.378;2023-03-21T07:18:30;64815.34;;;17.57;54.91
6833;BME280;3454;42.654;23.378;2023-03-21T07:20:56;64859.59;;;17.93;51.97
6833;BME280;3454;42.654;23.378;2023-03-21T07:23:24;64861.44;;;17.97;50.94
6833;BME280;3454;42.654;23.378;2023-03-21T07:25:51;64878.19;;;18.15;51.41
6833;BME280;3454;42.654;23.378;2023-03-21T07:28:24;64829.13;;;17.70;46.39
6833;BME280;3454;42.654;23.378;2023-03-21T07:30:54;64767.75;;;17.12;46.78
6833;BME280;3454;42.654;23.378;2023-03-21T07:33:21;64661.13;;;16.17;48.34
6833;BME280;3454;42.654;23.378;2023-03-21T07:35:49;64625.91;;;15.84;50.23
6833;BME280;3454;42.654;23.378;2023-03-21T07:38:15;64607.75;;;15.68;52.03
6833;BME280;3454;42.654;23.378;2023-03-21T07:40:42;64578.38;;;15.39;52.37
6833;BME280;3454;42.654;23.378;2023-03-21T07:43:07;64567.38;;;15.29;53.93
6833;BME280;3454;42.654;23.378;2023-03-21T07:45:33;64554.19;;;15.17;54.98
6833;BME280;3454;42.654;23.378;2023-03-21T07:47:59;64556.91;;;15.19;55.13
6833;BME280;3454;42.654;23.378;2023-03-21T07:50:25;64546.47;;;15.09;55.73
6833;BME280;3454;42.654;23.378;2023-03-21T07:52:50;64537.13;;;15.01;55.79
6833;BME280;3454;42.654;23.378;2023-03-21T07:55:16;64540.44;;;15.04;55.55
6833;BME280;3454;42.654;23.378;2023-03-21T07:57:42;64529.44;;;14.94;55.96
6833;BME280;3454;42.654;23.378;2023-03-21T08:00:08;64493.94;;;14.64;54.52
6833;BME280;3454;42.654;23.378;2023-03-21T08:02:33;64505.25;;;14.72;54.69
6833;BME280;3454;42.654;23.378;2023-03-21T08:04:59;64500.09;;;14.65;54.48
6833;BME280;3454;42.654;23.378;2023-03-21T08:07:24;64482.50;;;14.49;54.78
6833;BME280;3454;42.654;23.378;2023-03-21T08:09:51;64468.66;;;14.41;54.33
6833;BME280;3454;42.654;23.378;2023-03-21T08:12:17;64433.06;;;14.03;54.30
6833;BME280;3454;42.654;23.378;2023-03-21T08:14:42;64423.94;;;13.97;54.79
6833;BME280;3454;42.654;23.378;2023-03-21T08:17:08;64469.34;;;14.37;53.50
6833;BME280;3454;42.654;23.378;2023-03-21T08:19:34;64464.94;;;14.32;53.34
6833;BME280;3454;42.654;23.378;2023-03-21T08:21:59;64464.06;;;14.34;54.03
6833;BME280;3454;42.654;23.378;2023-03-21T08:24:26;64467.00;;;14.39;54.91
6833;BME280;3454;42.654;23.378;2023-03-21T08:26:53;64488.78;;;14.57;55.12
6833;BME280;3454;42.654;23.378;2023-03-21T08:29:19;64488.25;;;14.56;54.85
6833;BME280;3454;42.654;23.378;2023-03-21T08:31:45;64487.13;;;14.55;54.63
6833;BME280;3454;42.654;23.378;2023-03-21T08:34:11;64496.47;;;14.64;55.04
6833;BME280;3454;42.654;23.378;2023-03-21T08:36:38;64506.00;;;14.75;54.05
6833;BME280;3454;42.654;23.378;2023-03-21T08:39:04;64523.75;;;14.86;53.71
6833;BME280;3454;42.654;23.378;2023-03-21T08:41:37;64519.00;;;14.84;53.83
6833;BME280;3454;42.654;23.378;2023-03-21T08:44:04;64500.88;;;14.68;53.02
6833;BME280;3454;42.654;23.378;2023-03-21T08:46:31;64507.81;;;14.72;52.83
6833;BME280;3454;42.654;23.378;2023-03-21T08:48:56;64542.09;;;15.05;51.78
6833;BME280;3454;42.654;23.378;2023-03-21T08:51:22;64536.94;;;14.98;51.80
6833;BME280;3454;42.654;23.378;2023-03-21T08:53:47;64519.34;;;14.82;52.90
6833;BME280;3454;42.654;23.378;2023-03-21T08:56:15;64511.09;;;14.75;52.31
6833;BME280;3454;42.654;23.378;2023-03-21T08:58:42;64511.84;;;14.78;52.45
6833;BME280;3454;42.654;23.378;2023-03-21T09:01:09;64518.44;;;14.84;53.39
6833;BME280;3454;42.654;23.378;2023-03-21T09:03:36;64536.03;;;15.00;52.89
6833;BME280;3454;42.654;23.378;2023-03-21T09:06:03;64540.66;;;15.06;52.91
6833;BME280;3454;42.654;23.378;2023-03-21T09:08:28;64563.31;;;15.23;52.87
6833;BME280;3454;42.654;23.378;2023-03-21T09:10:54;64572.88;;;15.34;52.46
6833;BME280;3454;42.654;23.378;2023-03-21T09:13:21;64571.97;;;15.35;52.23
6833;BME280;3454;42.654;23.378;2023-03-21T09:15:46;64589.75;;;15.47;51.42
6833;BME280;3454;42.654;23.378;2023-03-21T09:18:12;64587.19;;;15.47;51.58
6833;BME280;3454;42.654;23.378;2023-03-21T09:20:41;64599.28;;;15.58;51.13
6833;BME280;3454;42.654;23.378;2023-03-21T09:23:09;64597.09;;;15.56;50.56
6833;BME280;3454;42.654;23.378;2023-03-21T09:25:35;64609.19;;;15.67;50.07
6833;BME280;3454;42.654;23.378;2023-03-21T09:28:01;64611.41;;;15.69;50.60
6833;BME280;3454;42.654;23.378;2023-03-21T09:30:30;64615.81;;;15.73;49.30
6833;BME280;3454;42.654;23.378;2023-03-21T09:33:01;64605.34;;;15.63;50.04
6833;BME280;3454;42.654;23.378;2023-03-21T09:35:28;64633.75;;;15.87;50.43
6833;BME280;3454;42.654;23.378;2023-03-21T09:37:54;64653.22;;;16.07;49.86
6833;BME280;3454;42.654;23.378;2023-03-21T09:45:30;64660.03;;;16.16;48.06
6833;BME280;3454;42.654;23.378;2023-03-21T09:47:59;64669.19;;;16.22;49.71
6833;BME280;3454;42.654;23.378;2023-03-21T09:50:34;64698.91;;;16.49;49.82
6833;BME280;3454;42.654;23.378;2023-03-21T09:53:22;64707.94;;;16.59;49.82
6833;BME280;3454;42.654;23.378;2023-03-21T09:55:50;64716.31;;;16.62;48.44
6833;BME280;3454;42.654;23.378;2023-03-21T09:58:38;64732.50;;;16.79;47.78
6833;BME280;3454;42.654;23.378;2023-03-21T10:01:13;64737.13;;;16.86;47.38
6833;BME280;3454;42.654;23.378;2023-03-21T10:03:47;64751.00;;;16.94;47.67
6833;BME280;3454;42.654;23.378;2023-03-21T10:06:14;64740.75;;;16.87;47.36
6833;BME280;3454;42.654;23.378;2023-03-21T10:08:44;64758.59;;;17.06;47.02
6833;BME280;3454;42.654;23.378;2023-03-21T10:11:21;64766.66;;;17.11;46.71
6833;BME280;3454;42.654;23.378;2023-03-21T10:14:01;64799.69;;;17.41;46.39
6833;BME280;3454;42.654;23.378;2023-03-21T10:19:26;64882.38;;;18.16;45.91
6833;BME280;3454;42.654;23.378;2023-03-21T10:21:52;64901.88;;;18.36;45.02
6833;BME280;3454;42.654;23.378;2023-03-21T10:24:20;64915.50;;;18.47;44.24
6833;BME280;3454;42.654;23.378;2023-03-21T10:26:49;64893.97;;;18.27;43.75
6833;BME280;3454;42.654;23.378;2023-03-21T10:29:18;64954.84;;;18.85;44.00
6833;BME280;3454;42.654;23.378;2023-03-21T10:31:48;64994.59;;;19.21;42.81
6833;BME280;3454;42.654;23.378;2023-03-21T10:34:26;65036.56;;;19.59;41.50
6833;BME280;3454;42.654;23.378;2023-03-21T10:36:53;65003.75;;;19.27;41.02
6833;BME280;3454;42.654;23.378;2023-03-21T10:41:46;65043.00;;;19.63;40.45
6833;BME280;3454;42.654;23.378;2023-03-21T10:44:14;65040.44;;;19.63;41.45
6833;BME280;3454;42.654;23.378;2023-03-21T10:46:51;65033.25;;;19.56;40.24
6833;BME280;3454;42.654;23.378;2023-03-21T10:49:16;65033.81;;;19.57;40.59
6833;BME280;3454;42.654;23.378;2023-03-21T10:51:43;65015.78;;;19.43;39.68
6833;BME280;3454;42.654;23.378;2023-03-21T10:54:15;64989.63;;;19.16;40.21
6833;BME280;3454;42.654;23.378;2023-03-21T10:56:48;64999.00;;;19.25;39.37
6833;BME280;3454;42.654;23.378;2023-03-21T10:59:19;64983.53;;;19.11;39.32
6833;BME280;3454;42.654;23.378;2023-03-21T11:01:50;64980.59;;;19.06;40.10
6833;BME280;3454;42.654;23.378;2023-03-21T11:04:23;64943.28;;;18.74;39.55
6833;BME280;3454;42.654;23.378;2023-03-21T11:06:56;64944.94;;;18.76;39.36
6833;BME280;3454;42.654;23.378;2023-03-21T11:09:26;64882.03;;;18.18;40.10
6833;BME280;3454;42.654;23.378;2023-03-21T11:12:15;64929.28;;;18.59;39.88
6833;BME280;3454;42.654;23.378;2023-03-21T11:14:49;64970.31;;;18.99;39.96
6833;BME280;3454;42.654;23.378;2023-03-21T11:19:40;64968.09;;;18.97;38.56
6833;BME280;3454;42.654;23.378;2023-03-21T11:22:11;64948.22;;;18.79;39.00
6833;BME280;3454;42.654;23.378;2023-03-21T11:24:37;64970.84;;;18.99;38.89
6833;BME280;3454;42.654;23.378;2023-03-21T11:27:06;64918.47;;;18.52;38.39
6833;BME280;3454;42.654;23.378;2023-03-21T11:29:39;64972.50;;;19.01;38.15
6833;BME280;3454;42.654;23.378;2023-03-21T11:32:23;65014.84;;;19.37;37.76
6833;BME280;3454;42.654;23.378;2023-03-21T11:34:56;65031.59;;;19.55;37.40
6833;BME280;3454;42.654;23.378;2023-03-21T11:37:31;65054.78;;;19.76;37.89
6833;BME280;3454;42.654;23.378;2023-03-21T11:42:37;65068.59;;;19.88;36.80
6833;BME280;3454;42.654;23.378;2023-03-21T11:45:12;65053.34;;;19.77;36.11
6833;BME280;3454;42.654;23.378;2023-03-21T11:47:38;65035.81;;;19.56;36.49
6833;BME280;3454;42.654;23.378;2023-03-21T11:50:32;65033.81;;;19.57;36.32
6833;BME280;3454;42.654;23.378;2023-03-21T12:17:23;64995.69;;;19.22;36.79
6833;BME280;3454;42.654;23.378;2023-03-21T12:24:55;65023.13;;;19.45;36.20
6833;BME280;3454;42.654;23.378;2023-03-21T12:40:58;64989.41;;;19.14;36.39
6833;BME280;3454;42.654;23.378;2023-03-21T12:49:31;64970.84;;;18.99;36.23
6833;BME280;3454;42.654;23.378;2023-03-21T12:52:04;64954.66;;;18.82;35.90
6833;BME280;3454;42.654;23.378;2023-03-21T12:54:38;64932.03;;;18.62;36.89
6833;BME280;3454;42.654;23.378;2023-03-21T12:57:18;64923.97;;;18.57;36.88
6833;BME280;3454;42.654;23.378;2023-03-21T13:02:28;64963.50;;;18.90;37.14
6833;BME280;3454;42.654;23.378;2023-03-21T13:05:00;64955.97;;;18.86;37.45
6833;BME280;3454;42.654;23.378;2023-03-21T13:07:34;64956.19;;;18.88;37.25
6833;BME280;3454;42.654;23.378;2023-03-21T13:10:11;64944.94;;;18.76;37.99
6833;BME280;3454;42.654;23.378;2023-03-21T13:12:46;64938.88;;;18.70;36.92
6833;BME280;3454;42.654;23.378;2023-03-21T13:15:22;64943.06;;;18.72;38.14
6833;BME280;3454;42.654;23.378;2023-03-21T13:18:01;64942.72;;;18.74;37.97
6833;BME280;3454;42.654;23.378;2023-03-21T13:20:40;64936.13;;;18.68;38.02
6833;BME280;3454;42.654;23.378;2023-03-21T13:23:08;64941.63;;;18.73;38.77
6833;BME280;3454;42.654;23.378;2023-03-21T13:25:40;64947.50;;;18.76;38.75
6833;BME280;3454;42.654;23.378;2023-03-21T13:28:19;64942.19;;;18.73;38.86
6833;BME280;3454;42.654;23.378;2023-03-21T13:30:45;64948.78;;;18.79;39.06
6833;BME280;3454;42.654;23.378;2023-03-21T13:33:15;64949.13;;;18.77;38.66
6833;BME280;3454;42.654;23.378;2023-03-21T13:35:43;64941.09;;;18.72;38.88
6833;BME280;3454;42.654;23.378;2023-03-21T13:38:20;64926.16;;;18.59;39.54
6833;BME280;3454;42.654;23.378;2023-03-21T13:40:50;64938.88;;;18.70;40.42
6833;BME280;3454;42.654;23.378;2023-03-21T13:59:12;64912.41;;;18.46;40.92
6833;BME280;3454;42.654;23.378;2023-03-21T14:01:57;64922.09;;;18.53;41.16
6833;BME280;3454;42.654;23.378;2023-03-21T14:04:26;64935.91;;;18.65;41.31
6833;BME280;3454;42.654;23.378;2023-03-21T14:07:10;64939.41;;;18.71;41.08
6833;BME280;3454;42.654;23.378;2023-03-21T14:09:43;64929.50;;;18.62;41.54
6833;BME280;3454;42.654;23.378;2023-03-21T14:12:14;64882.38;;;18.16;42.49
6833;BME280;3454;42.654;23.378;2023-03-21T14:14:45;64887.00;;;18.23;42.90
6833;BME280;3454;42.654;23.378;2023-03-21T14:17:13;64905.22;;;18.39;42.57
6833;BME280;3454;42.654;23.378;2023-03-21T14:19:39;64882.03;;;18.18;42.78
6833;BME280;3454;42.654;23.378;2023-03-21T14:22:10;64875.41;;;18.12;43.69
6833;BME280;3454;42.654;23.378;2023-03-21T14:24:37;64869.38;;;18.07;43.95
6833;BME280;3454;42.654;23.378;2023-03-21T14:27:04;64864.41;;;18.02;43.98
6833;BME280;3454;42.654;23.378;2023-03-21T14:29:33;64857.22;;;17.96;43.68
6833;BME280;3454;42.654;23.378;2023-03-21T14:32:00;64857.44;;;17.98;43.80
6833;BME280;3454;42.654;23.378;2023-03-21T14:34:28;64861.44;;;17.97;43.81
6833;BME280;3454;42.654;23.378;2023-03-21T14:36:54;64853.72;;;17.90;44.01
6833;BME280;3454;42.654;23.378;2023-03-21T14:39:22;64831.31;;;17.72;43.97
6833;BME280;3454;42.654;23.378;2023-03-21T14:47:06;64846.75;;;17.86;44.50
6833;BME280;3454;42.654;23.378;2023-03-21T14:49:35;64854.81;;;17.91;44.77
6833;BME280;3454;42.654;23.378;2023-03-21T14:52:10;64845.66;;;17.85;44.19
6833;BME280;3454;42.654;23.378;2023-03-21T14:54:41;64811.16;;;17.56;44.86
6833;BME280;3454;42.654;23.378;2023-03-21T14:57:12;64791.97;;;17.34;45.75
6833;BME280;3454;42.654;23.378;2023-03-21T14:59:39;64802.09;;;17.45;45.28
6833;BME280;3454;42.654;23.378;2023-03-21T15:02:36;64799.88;;;17.43;45.07
6833;BME280;3454;42.654;23.378;2023-03-21T15:07:38;64809.28;;;17.52;45.21
6833;BME280;3454;42.654;23.378;2023-03-21T15:10:14;64804.28;;;17.47;45.23
6833;BME280;3454;42.654;23.378;2023-03-21T15:13:31;64806.84;;;17.47;45.83
6833;BME280;3454;42.654;23.378;2023-03-21T15:15:37;64794.94;;;17.39;46.77
6833;BME280;3454;42.654;23.378;2023-03-21T15:18:04;64788.69;;;17.31;46.60
6833;BME280;3454;42.654;23.378;2023-03-21T15:20:33;64783.16;;;17.26;46.33
6833;BME280;3454;42.654;23.378;2023-03-21T15:23:06;64785.03;;;17.30;47.27
6833;BME280;3454;42.654;23.378;2023-03-21T15:25:35;64796.59;;;17.40;47.74